Time;durP1;ratioP1;P1;durP2;ratioP2;P2;SDS_P1;SDS_P2;PMS_P1;PMS_P2;Temp;Humidity;BMP_temperature;BMP_pressure;BME280_temperature;BME280_humidity;BME280_pressure;Samples;Min_cycle;Max_cycle;Signal;HPM_P1;HPM_P2
2023/10/06 00:00:09;;;;;;;13.48;5.00;;;;;;;14.25;100.00;102376.06;10585254;28;20035;-75
2023/10/06 00:05:11;;;;;;;7.25;5.15;;;;;;;14.23;100.00;102375.44;10585252;28;20107;-75
2023/10/06 00:10:18;;;;;;;14.27;4.95;;;;;;;14.15;100.00;102360.00;10583852;28;20047;-75
2023/10/06 00:15:35;;;;;;;10.60;5.13;;;;;;;14.19;100.00;102355.00;10583819;28;20451;-75
2023/10/06 00:20:39;;;;;;;4.15;3.85;;;;;;;14.18;100.00;102353.34;10583049;28;20039;-75
2023/10/06 00:25:42;;;;;;;7.70;4.97;;;;;;;14.13;100.00;102353.03;10584207;28;20048;-75
2023/10/06 00:30:43;;;;;;;12.35;4.60;;;;;;;14.05;100.00;102361.28;10583072;27;20039;-75
2023/10/06 00:35:44;;;;;;;4.82;3.38;;;;;;;14.07;100.00;102351.91;10583656;28;20039;-75
2023/10/06 00:40:51;;;;;;;7.55;3.17;;;;;;;14.07;100.00;102359.22;10584839;28;20063;-76
2023/10/06 00:45:51;;;;;;;;;;;;;;;14.03;100.00;102350.56;10590165;28;20036;-77
2023/10/06 00:50:54;;;;;;;11.60;4.05;;;;;;;14.02;100.00;102346.16;10585860;28;20338;-75
2023/10/06 00:55:56;;;;;;;14.77;4.35;;;;;;;13.96;100.00;102336.00;10585270;28;20386;-77
2023/10/06 01:00:56;;;;;;;5.00;3.35;;;;;;;14.00;100.00;102348.22;10568083;28;20038;-77
2023/10/06 01:05:59;;;;;;;2.63;2.42;;;;;;;13.98;100.00;102344.00;10587857;28;20498;-75
2023/10/06 01:11:11;;;;;;;17.05;4.18;;;;;;;14.01;100.00;102341.75;10608106;27;20034;-74
2023/10/06 01:16:15;;;;;;;12.85;4.10;;;;;;;13.98;100.00;102333.97;10600975;28;20067;-73
2023/10/06 01:21:28;;;;;;;17.88;4.80;;;;;;;14.06;100.00;102317.50;10578705;28;20027;-75
2023/10/06 01:26:28;;;;;;;6.78;4.35;;;;;;;14.04;100.00;102322.31;10598769;28;20051;-76
2023/10/06 01:31:29;;;;;;;7.07;3.28;;;;;;;14.06;100.00;102319.41;10588834;28;20409;-76
2023/10/06 01:36:30;;;;;;;4.50;3.20;;;;;;;14.02;100.00;102316.22;10589377;27;20047;-75
2023/10/06 01:41:36;;;;;;;10.25;4.13;;;;;;;14.00;100.00;102322.88;10584848;28;20047;-76
2023/10/06 01:46:39;;;;;;;6.78;4.03;;;;;;;14.03;100.00;102314.31;10583892;28;20076;-75
2023/10/06 01:51:40;;;;;;;6.20;3.95;;;;;;;13.90;100.00;102312.22;10566143;28;20078;-75
2023/10/06 01:56:42;;;;;;;8.48;4.13;;;;;;;13.90;100.00;102309.50;10586117;28;20115;-76
2023/10/06 02:01:43;;;;;;;8.32;4.00;;;;;;;13.86;100.00;102309.03;10585518;28;20462;-75
2023/10/06 02:06:44;;;;;;;9.35;3.58;;;;;;;13.76;100.00;102300.28;10585283;28;20071;-75
2023/10/06 02:11:45;;;;;;;6.53;3.85;;;;;;;13.75;100.00;102303.19;10583343;28;20058;-74
2023/10/06 02:16:46;;;;;;;5.00;3.28;;;;;;;13.71;100.00;102316.31;10565580;28;20030;-76
2023/10/06 02:21:48;;;;;;;10.38;3.42;;;;;;;13.77;100.00;102312.88;10569997;28;20031;-76
2023/10/06 02:26:57;;;;;;;6.45;3.58;;;;;;;13.73;100.00;102322.44;10581573;28;20067;-75
2023/10/06 02:32:06;;;;;;;3.95;3.55;;;;;;;13.74;100.00;102318.69;10583300;28;20055;-76
2023/10/06 02:37:07;;;;;;;7.93;3.15;;;;;;;13.76;100.00;102313.06;10587391;28;20031;-75
2023/10/06 02:42:09;;;;;;;14.20;4.43;;;;;;;13.71;100.00;102300.00;10584082;28;20036;-78
2023/10/06 02:47:09;;;;;;;13.75;3.38;;;;;;;13.64;100.00;102283.53;10583545;28;20412;-74
2023/10/06 02:52:20;;;;;;;3.80;3.28;;;;;;;13.68;100.00;102276.69;10584654;28;20034;-75
2023/10/06 02:57:20;;;;;;;17.42;5.10;;;;;;;13.70;100.00;102274.66;10592286;28;20043;-75
2023/10/06 03:02:21;;;;;;;8.10;3.80;;;;;;;13.72;100.00;102275.31;10609139;27;20052;-76
2023/10/06 03:07:22;;;;;;;11.45;4.80;;;;;;;13.62;100.00;102249.38;10589827;28;20024;-75
2023/10/06 03:17:23;;;;;;;10.45;3.58;;;;;;;13.85;100.00;102249.34;10572719;28;20165;-77
2023/10/06 03:22:25;;;;;;;10.30;5.15;;;;;;;13.84;100.00;102250.34;10605193;27;20048;-77
2023/10/06 03:27:26;;;;;;;15.88;5.15;;;;;;;13.90;100.00;102264.06;10590779;28;20454;-76
2023/10/06 03:32:32;;;;;;;10.80;4.78;;;;;;;13.92;100.00;102263.88;10590100;28;20035;-76
2023/10/06 03:37:45;;;;;;;9.40;4.65;;;;;;;13.94;100.00;102269.97;10589882;28;20173;-77
2023/10/06 03:42:47;;;;;;;9.38;4.78;;;;;;;13.90;100.00;102276.84;10589840;27;20039;-75
2023/10/06 03:47:48;;;;;;;6.18;3.00;;;;;;;13.90;100.00;102258.63;10590485;27;20063;-77
2023/10/06 03:52:49;;;;;;;8.23;3.70;;;;;;;13.95;100.00;102261.63;10586920;28;20038;-76
2023/10/06 03:57:49;;;;;;;9.77;5.35;;;;;;;13.96;100.00;102248.84;10590250;28;20135;-76
2023/10/06 04:02:50;;;;;;;6.65;4.43;;;;;;;14.01;100.00;102257.31;10592330;28;20076;-74
2023/10/06 04:07:50;;;;;;;10.25;3.88;;;;;;;14.05;100.00;102250.47;10590981;28;20035;-77
2023/10/06 04:12:50;;;;;;;4.18;3.72;;;;;;;14.00;100.00;102250.16;10589258;28;20039;-77
2023/10/06 04:17:51;;;;;;;10.95;4.75;;;;;;;13.95;100.00;102239.00;10591291;28;20046;-74
2023/10/06 04:22:51;;;;;;;11.65;5.30;;;;;;;13.95;100.00;102228.97;10604507;27;20051;-77
2023/10/06 04:27:52;;;;;;;9.60;4.65;;;;;;;13.96;100.00;102230.63;10571866;28;20027;-77
2023/10/06 04:32:53;;;;;;;7.63;5.22;;;;;;;13.98;100.00;102226.91;10592245;28;20030;-77
2023/10/06 04:37:53;;;;;;;6.65;4.32;;;;;;;14.09;100.00;102218.25;10590578;28;20349;-75
2023/10/06 04:42:55;;;;;;;6.93;4.38;;;;;;;14.06;100.00;102224.91;10587559;28;20039;-77
2023/10/06 04:47:55;;;;;;;7.93;4.38;;;;;;;14.09;100.00;102218.25;10568411;28;20070;-74
2023/10/06 04:52:56;;;;;;;7.80;4.72;;;;;;;14.06;100.00;102215.91;10584340;28;20455;-75
2023/10/06 04:57:57;;;;;;;6.78;5.20;;;;;;;13.86;100.00;102191.94;10582022;28;20032;-76
2023/10/06 05:02:57;;;;;;;9.80;5.82;;;;;;;13.93;100.00;102222.00;10582546;28;20035;-75
2023/10/06 05:07:58;;;;;;;8.82;6.13;;;;;;;13.87;100.00;102225.47;10581459;28;20028;-78
2023/10/06 05:13:06;;;;;;;7.78;4.65;;;;;;;13.88;100.00;102224.44;10581796;28;20035;-75
2023/10/06 05:18:07;;;;;;;26.48;6.40;;;;;;;13.91;100.00;102221.31;10581180;28;20035;-75
2023/10/06 05:23:09;;;;;;;17.17;6.15;;;;;;;13.99;100.00;102213.09;10564475;28;20051;-77
2023/10/06 05:28:13;;;;;;;16.50;6.20;;;;;;;14.02;100.00;102215.44;10582972;28;20493;-77
2023/10/06 05:33:14;;;;;;;24.30;6.25;;;;;;;14.06;100.00;102216.72;10582728;28;20031;-74
2023/10/06 05:38:14;;;;;;;6.13;5.18;;;;;;;14.10;100.00;102237.13;10599566;27;20032;-78
2023/10/06 05:43:18;;;;;;;9.73;5.00;;;;;;;14.18;100.00;102237.03;10582993;28;20085;-76
2023/10/06 05:48:22;;;;;;;9.38;7.05;;;;;;;14.19;100.00;102230.53;10581270;28;20057;-76
2023/10/06 05:53:23;;;;;;;19.67;6.65;;;;;;;14.16;100.00;102224.63;10581219;28;20050;-75
2023/10/06 05:58:23;;;;;;;10.13;5.20;;;;;;;14.13;100.00;102228.56;10581766;28;20035;-77
2023/10/06 06:03:24;;;;;;;27.00;6.70;;;;;;;14.08;100.00;102228.31;10583082;28;20367;-75
2023/10/06 06:08:24;;;;;;;7.20;4.85;;;;;;;14.11;100.00;102217.03;10579419;28;20028;-78
2023/10/06 06:13:24;;;;;;;8.45;5.30;;;;;;;14.10;100.00;102217.19;10579277;28;20106;-79
2023/10/06 06:18:27;;;;;;;12.13;5.70;;;;;;;14.13;100.00;102217.66;10580935;28;20034;-78
2023/10/06 06:23:28;;;;;;;12.45;5.35;;;;;;;14.26;100.00;102224.31;10579995;28;20055;-79
2023/10/06 06:28:29;;;;;;;8.77;5.20;;;;;;;14.29;100.00;102221.22;10583197;28;20047;-75
2023/10/06 06:33:32;;;;;;;8.48;4.28;;;;;;;14.37;100.00;102210.22;10604650;27;20071;-77
2023/10/06 06:38:39;;;;;;;7.75;5.85;;;;;;;14.40;100.00;102220.75;10587914;28;20028;-77
2023/10/06 06:43:44;;;;;;;;;;;;;;;14.53;100.00;102226.41;10591209;28;20114;-76
2023/10/06 06:48:46;;;;;;;12.70;6.20;;;;;;;14.73;100.00;102225.78;10588552;28;20250;-74
2023/10/06 06:53:47;;;;;;;11.55;5.07;;;;;;;15.23;100.00;102233.00;10570661;28;20374;-76
2023/10/06 06:58:48;;;;;;;14.48;5.85;;;;;;;15.97;100.00;102210.69;10587941;28;20027;-75
2023/10/06 07:03:49;;;;;;;9.95;4.70;;;;;;;16.58;100.00;102230.97;10570424;28;20034;-77
2023/10/06 07:08:49;;;;;;;4.95;4.47;;;;;;;16.93;100.00;102229.81;10586663;28;20034;-76
2023/10/06 07:13:50;;;;;;;12.55;5.63;;;;;;;17.53;100.00;102229.88;10586706;28;20126;-77
2023/10/06 07:18:51;;;;;;;5.43;4.60;;;;;;;18.00;100.00;102233.44;10586061;28;20028;-76
2023/10/06 07:23:52;;;;;;;7.38;3.80;;;;;;;18.11;100.00;102245.63;10587663;28;20051;-76
2023/10/06 07:28:52;;;;;;;8.25;4.45;;;;;;;18.48;100.00;102232.22;10587178;28;20166;-78
2023/10/06 07:33:54;;;;;;;7.15;4.53;;;;;;;17.91;100.00;102242.94;10585858;28;20140;-76
2023/10/06 07:38:54;;;;;;;7.70;4.15;;;;;;;17.49;100.00;102238.75;10601765;27;20434;-74
2023/10/06 07:43:56;;;;;;;7.97;4.50;;;;;;;17.78;100.00;102241.06;10568632;28;20048;-75
2023/10/06 07:48:57;;;;;;;13.38;4.97;;;;;;;17.40;100.00;102251.78;10586297;28;20034;-76
2023/10/06 07:53:59;;;;;;;4.40;4.00;;;;;;;17.34;100.00;102258.09;10586608;28;20426;-76
2023/10/06 07:58:59;;;;;;;8.57;4.20;;;;;;;17.12;100.00;102250.06;10589012;28;20552;-77
2023/10/06 08:04:00;;;;;;;6.55;4.03;;;;;;;16.96;100.00;102245.81;10570143;28;20047;-75
2023/10/06 08:09:05;;;;;;;7.07;4.28;;;;;;;16.93;100.00;102259.91;10586352;28;20109;-76
2023/10/06 08:14:06;;;;;;;26.98;4.18;;;;;;;17.06;100.00;102255.53;10584974;28;20027;-77
2023/10/06 08:19:06;;;;;;;6.93;4.45;;;;;;;17.41;100.00;102270.72;10585792;28;20016;-76
2023/10/06 08:24:07;;;;;;;12.35;3.67;;;;;;;17.72;100.00;102274.75;10586023;28;20079;-77
2023/10/06 08:29:08;;;;;;;15.18;4.68;;;;;;;17.68;100.00;102273.50;10584758;28;20036;-75
2023/10/06 08:34:11;;;;;;;14.80;4.18;;;;;;;17.90;100.00;102265.94;10584789;28;20031;-78
2023/10/06 08:39:13;;;;;;;10.90;5.20;;;;;;;18.33;100.00;102271.72;10586292;28;20363;-76
2023/10/06 08:44:13;;;;;;;9.95;3.92;;;;;;;18.27;100.00;102289.03;10590614;28;20300;-73
2023/10/06 08:49:19;;;;;;;8.02;3.88;;;;;;;18.31;100.00;102281.22;10570138;28;20027;-76
2023/10/06 08:54:19;;;;;;;6.85;4.55;;;;;;;18.53;100.00;102279.88;10598179;28;20019;-76
2023/10/06 08:59:20;;;;;;;10.70;4.95;;;;;;;18.50;100.00;102287.69;10598856;28;20355;-78
2023/10/06 09:04:21;;;;;;;4.85;4.13;;;;;;;18.55;100.00;102277.75;10584244;28;20047;-76
2023/10/06 09:09:26;;;;;;;4.80;3.78;;;;;;;18.79;100.00;102280.84;10583487;28;20106;-75
2023/10/06 09:14:28;;;;;;;9.35;4.60;;;;;;;18.78;100.00;102290.97;10565725;28;20148;-75
2023/10/06 09:19:49;;;;;;;12.50;3.95;;;;;;;18.57;100.00;102274.81;10583630;28;20407;-77
2023/10/06 09:24:59;;;;;;;3.67;3.35;;;;;;;18.46;100.00;102278.22;10582001;28;20065;-74
2023/10/06 09:30:16;;;;;;;3.92;3.42;;;;;;;18.52;100.00;102263.63;10563794;28;20020;-76
2023/10/06 09:35:20;;;;;;;8.13;4.00;;;;;;;18.81;100.00;102257.63;10565789;28;20074;-75
2023/10/06 09:40:21;;;;;;;15.25;4.88;;;;;;;19.46;100.00;102264.78;10583050;28;20087;-76
2023/10/06 09:45:24;;;;;;;5.70;3.53;;;;;;;19.85;100.00;102254.56;10564111;28;20107;-77
2023/10/06 09:50:26;;;;;;;5.97;3.70;;;;;;;20.56;100.00;102281.50;10580096;28;20047;-78
2023/10/06 09:55:26;;;;;;;19.73;3.08;;;;;;;20.18;100.00;102277.03;10564078;28;20152;-78
2023/10/06 10:00:29;;;;;;;21.30;3.80;;;;;;;20.04;100.00;102269.16;10580654;28;20024;-75
2023/10/06 10:05:30;;;;;;;9.63;4.63;;;;;;;20.23;100.00;102253.50;10581886;28;20030;-75
2023/10/06 10:10:30;;;;;;;5.97;3.60;;;;;;;19.84;100.00;102258.34;10579551;28;20358;-77
2023/10/06 10:15:52;;;;;;;14.93;3.47;;;;;;;19.70;100.00;102263.97;10580764;28;20023;-75
2023/10/06 10:20:52;;;;;;;8.65;5.32;;;;;;;19.66;100.00;102254.50;10599641;28;20028;-77
2023/10/06 10:25:54;;;;;;;15.23;5.78;;;;;;;19.65;100.00;102262.97;10567554;28;20056;-80
2023/10/06 10:30:54;;;;;;;9.43;3.67;;;;;;;19.53;100.00;102251.84;10580586;28;20134;-76
2023/10/06 10:36:14;;;;;;;9.93;3.88;;;;;;;19.28;100.00;102262.81;10581990;28;20103;-75
2023/10/06 10:41:15;;;;;;;15.82;4.13;;;;;;;19.20;100.00;102266.66;10581412;28;20092;-76
2023/10/06 10:46:33;;;;;;;14.65;5.22;;;;;;;19.10;100.00;102260.81;10566341;28;20078;-77
2023/10/06 10:51:56;;;;;;;5.80;3.72;;;;;;;19.68;100.00;102248.78;10583821;28;20073;-77
2023/10/06 10:57:02;;;;;;;13.93;6.18;;;;;;;20.18;100.00;102243.19;10564952;28;20095;-77
2023/10/06 11:02:05;;;;;;;17.65;5.18;;;;;;;21.13;100.00;102240.69;10579006;28;20480;-76
2023/10/06 11:07:12;;;;;;;5.97;4.25;;;;;;;22.31;100.00;102234.41;10561656;28;20032;-76
2023/10/06 11:12:15;;;;;;;14.43;4.88;;;;;;;22.87;92.95;102243.81;10580814;28;20027;-74
2023/10/06 11:17:22;;;;;;;12.30;4.82;;;;;;;23.25;88.61;102225.72;10588615;28;20046;-78
2023/10/06 11:22:23;;;;;;;11.23;4.85;;;;;;;23.03;90.67;102236.66;10586904;28;20464;-75
2023/10/06 11:27:23;;;;;;;8.07;3.97;;;;;;;23.38;88.08;102244.75;10587064;28;20059;-77
2023/10/06 11:32:24;;;;;;;7.95;4.13;;;;;;;23.26;86.83;102230.16;10588952;28;20055;-78
2023/10/06 11:37:25;;;;;;;6.57;4.15;;;;;;;22.65;91.04;102227.91;10588266;28;20051;-75
2023/10/06 11:42:25;;;;;;;8.45;3.60;;;;;;;23.08;88.85;102239.53;10569997;28;20119;-78
2023/10/06 11:47:28;;;;;;;9.20;4.93;;;;;;;23.50;85.10;102241.91;10588010;28;20031;-78
2023/10/06 11:52:29;;;;;;;12.52;4.60;;;;;;;24.07;83.85;102233.38;10588431;28;20023;-78
2023/10/06 11:57:46;;;;;;;15.27;5.43;;;;;;;23.40;81.62;102237.03;10585814;28;20055;-75
2023/10/06 12:02:50;;;;;;;16.90;4.38;;;;;;;23.07;86.65;102232.31;10603107;27;20474;-78
2023/10/06 12:07:50;;;;;;;4.57;3.67;;;;;;;23.17;86.00;102218.69;10587111;28;20039;-78
2023/10/06 12:12:52;;;;;;;17.15;5.60;;;;;;;23.86;79.60;102202.66;10571858;28;20451;-77
2023/10/06 12:17:52;;;;;;;8.63;4.00;;;;;;;24.08;78.07;102208.22;10595969;28;20034;-75
2023/10/06 12:22:53;;;;;;;5.25;4.30;;;;;;;24.42;75.38;102218.38;10557357;28;20046;-77
2023/10/06 12:27:56;;;;;;;5.03;4.10;;;;;;;23.94;74.58;102219.94;10595106;28;20059;-76
2023/10/06 12:32:58;;;;;;;10.90;5.00;;;;;;;23.46;76.76;102204.78;10590943;28;20039;-77
2023/10/06 12:37:58;;;;;;;7.40;3.70;;;;;;;23.28;79.93;102194.81;10589822;28;20040;-77
2023/10/06 12:42:59;;;;;;;9.68;3.33;;;;;;;23.57;75.76;102182.56;10587007;28;20369;-78
2023/10/06 12:48:04;;;;;;;11.38;4.68;;;;;;;23.73;74.70;102180.06;10595804;28;20102;-77
2023/10/06 12:53:05;;;;;;;15.60;3.95;;;;;;;23.83;72.07;102175.50;10571649;28;20023;-74
2023/10/06 12:58:06;;;;;;;4.97;3.78;;;;;;;24.04;65.81;102173.00;10588194;28;20450;-76
2023/10/06 13:03:15;;;;;;;8.70;4.13;;;;;;;23.56;66.59;102174.53;10586734;28;20522;-76
2023/10/06 13:08:21;;;;;;;8.07;4.30;;;;;;;23.25;71.24;102168.53;10586042;28;20031;-78
2023/10/06 13:13:22;;;;;;;4.82;3.28;;;;;;;23.53;69.56;102172.28;10568755;28;20545;-78
2023/10/06 13:18:22;;;;;;;12.35;3.75;;;;;;;23.60;72.42;102168.22;10587222;28;20063;-76
2023/10/06 13:23:26;;;;;;;6.57;3.00;;;;;;;23.46;69.86;102166.09;10610823;27;20052;-76
2023/10/06 13:28:28;;;;;;;7.20;4.40;;;;;;;23.22;68.27;102157.97;10586053;28;20027;-75
2023/10/06 13:33:29;;;;;;;14.20;3.47;;;;;;;23.34;64.93;102167.00;10589211;28;20043;-77
2023/10/06 13:38:33;;;;;;;8.02;3.60;;;;;;;23.49;65.89;102165.59;10592690;28;20089;-78
2023/10/06 13:43:33;;;;;;;6.38;3.92;;;;;;;23.58;64.49;102166.81;10588949;28;20039;-75
2023/10/06 13:48:34;;;;;;;9.88;3.67;;;;;;;23.34;64.82;102169.78;10598824;28;20039;-76
2023/10/06 13:53:36;;;;;;;7.75;3.33;;;;;;;23.03;66.65;102159.31;10588818;28;20023;-77
2023/10/06 13:58:36;;;;;;;10.15;4.18;;;;;;;23.12;68.60;102155.03;10584196;28;20079;-78
2023/10/06 14:03:37;;;;;;;9.10;3.42;;;;;;;22.84;70.41;102155.91;10582547;28;20027;-76
2023/10/06 14:08:38;;;;;;;11.82;3.85;;;;;;;22.64;75.07;102156.38;10581001;28;20186;-76
2023/10/06 14:13:41;;;;;;;2.80;2.40;;;;;;;22.36;76.17;102149.78;10598423;28;20085;-77
2023/10/06 14:18:42;;;;;;;10.90;2.55;;;;;;;22.75;76.27;102141.69;10584063;28;20072;-77
2023/10/06 14:23:47;;;;;;;4.93;3.10;;;;;;;22.88;71.63;102119.28;10584179;28;20089;-78
2023/10/06 14:28:48;;;;;;;7.20;2.75;;;;;;;22.64;72.80;102115.81;10588170;28;20059;-77
2023/10/06 14:33:57;;;;;;;4.88;3.15;;;;;;;22.46;74.02;102138.09;10582966;28;20036;-76
2023/10/06 14:49:39;;;;;;;2.85;2.65;;;;;;;21.27;81.32;102122.84;10586810;28;20532;-78
2023/10/06 14:54:40;;;;;;;3.80;3.38;;;;;;;20.92;83.58;102141.25;10591843;28;20111;-77
2023/10/06 14:59:41;;;;;;;4.47;3.35;;;;;;;20.37;86.87;102125.72;10590307;28;20062;-75
2023/10/06 15:04:42;;;;;;;9.15;3.25;;;;;;;20.08;90.32;102133.72;10590781;28;20019;-76
2023/10/06 15:09:43;;;;;;;15.48;3.60;;;;;;;19.97;92.68;102143.59;10595072;28;20059;-77
2023/10/06 15:14:46;;;;;;;5.45;3.80;;;;;;;19.76;97.47;102135.81;10590776;28;20031;-78
2023/10/06 15:19:46;;;;;;;10.40;4.10;;;;;;;19.59;99.80;102145.69;10589336;28;20478;-77
2023/10/06 15:24:47;;;;;;;7.07;3.70;;;;;;;19.49;100.00;102151.69;10570462;28;20044;-78
2023/10/06 15:29:50;;;;;;;10.57;3.63;;;;;;;19.41;100.00;102150.09;10589120;28;20042;-74
2023/10/06 15:34:51;;;;;;;9.80;3.50;;;;;;;19.44;100.00;102154.28;10588465;28;20031;-75
2023/10/06 15:39:51;;;;;;;8.57;5.35;;;;;;;19.48;100.00;102150.84;10588150;28;20046;-77
2023/10/06 15:44:52;;;;;;;10.02;3.65;;;;;;;19.41;100.00;102147.34;10589146;28;20028;-77
2023/10/06 15:49:53;;;;;;;6.88;4.70;;;;;;;19.17;100.00;102137.19;10604151;27;20039;-76
2023/10/06 15:54:54;;;;;;;8.60;4.13;;;;;;;19.04;100.00;102132.66;10586557;28;20400;-76
2023/10/06 15:59:57;;;;;;;8.15;3.55;;;;;;;19.01;100.00;102139.44;10588398;28;20019;-78
2023/10/06 16:04:59;;;;;;;16.77;5.40;;;;;;;18.91;100.00;102144.59;10587444;28;20370;-76
2023/10/06 16:09:59;;;;;;;14.10;4.10;;;;;;;18.87;100.00;102137.03;10588619;28;20047;-76
2023/10/06 16:15:00;;;;;;;7.07;3.03;;;;;;;18.69;100.00;102133.09;10570318;28;20034;-76
2023/10/06 16:20:01;;;;;;;10.43;4.07;;;;;;;18.49;100.00;102124.19;10594734;28;20099;-75
2023/10/06 16:25:05;;;;;;;12.60;4.32;;;;;;;18.50;100.00;102137.66;10604102;28;20067;-76
2023/10/06 16:30:07;;;;;;;5.85;2.50;;;;;;;18.25;100.00;102143.09;10594431;28;20030;-77
2023/10/06 16:35:09;;;;;;;20.83;5.18;;;;;;;17.96;100.00;102116.22;10577984;28;20077;-75
2023/10/06 16:40:12;;;;;;;10.82;3.42;;;;;;;17.93;100.00;102138.56;10615719;27;20040;-75
2023/10/06 16:45:13;;;;;;;20.02;4.75;;;;;;;17.83;100.00;102148.06;10593967;28;20172;-77
2023/10/06 16:50:13;;;;;;;17.50;5.57;;;;;;;17.76;100.00;102163.66;10586910;28;20059;-76
2023/10/06 16:55:13;;;;;;;7.32;4.78;;;;;;;17.58;100.00;102152.53;10586847;28;20036;-75
2023/10/06 17:00:15;;;;;;;8.32;4.70;;;;;;;17.42;100.00;102141.00;10590074;28;20139;-78
2023/10/06 17:05:15;;;;;;;11.77;4.95;;;;;;;17.41;100.00;102152.16;10586401;28;20110;-76
2023/10/06 17:10:16;;;;;;;11.77;4.03;;;;;;;17.30;100.00;102158.28;10586473;28;20028;-75
2023/10/06 17:15:17;;;;;;;6.32;4.35;;;;;;;17.20;100.00;102148.59;10587636;28;20081;-74
2023/10/06 17:20:17;;;;;;;12.25;5.82;;;;;;;17.20;100.00;102143.13;10583754;28;20087;-75
2023/10/06 17:25:19;;;;;;;31.58;6.22;;;;;;;17.11;100.00;102149.03;10601560;27;20455;-76
2023/10/06 17:30:20;;;;;;;18.40;5.45;;;;;;;17.10;100.00;102161.00;10585167;28;20019;-76
2023/10/06 17:35:20;;;;;;;5.60;4.43;;;;;;;17.06;100.00;102148.78;10587026;28;20115;-76
2023/10/06 17:40:22;;;;;;;6.75;4.93;;;;;;;16.94;100.00;102149.44;10590671;28;20035;-76
2023/10/06 17:45:24;;;;;;;17.60;5.72;;;;;;;16.94;100.00;102154.91;10585319;28;20168;-76
2023/10/06 17:50:25;;;;;;;17.65;6.10;;;;;;;16.89;100.00;102135.53;10583947;28;20066;-76
2023/10/06 17:55:31;;;;;;;7.10;4.88;;;;;;;16.84;100.00;102129.84;10582940;28;20051;-77
2023/10/06 18:00:31;;;;;;;9.23;5.35;;;;;;;16.84;100.00;102135.31;10583476;28;20047;-76
2023/10/06 18:05:32;;;;;;;19.95;6.07;;;;;;;16.81;100.00;102127.50;10582572;28;20055;-75
2023/10/06 18:10:34;;;;;;;9.35;5.13;;;;;;;16.72;100.00;102134.22;10583697;28;20027;-76
2023/10/06 18:15:34;;;;;;;13.40;3.90;;;;;;;16.72;100.00;102134.22;10581982;28;20042;-75
2023/10/06 18:20:36;;;;;;;6.18;4.05;;;;;;;16.68;100.00;102139.25;10581248;28;20039;-77
2023/10/06 18:25:37;;;;;;;14.95;5.50;;;;;;;16.62;100.00;102142.81;10613621;27;20086;-76
2023/10/06 18:30:38;;;;;;;14.82;4.78;;;;;;;16.67;100.00;102131.25;10596633;27;20038;-74
2023/10/06 18:35:38;;;;;;;13.50;5.00;;;;;;;16.60;100.00;102119.47;10594920;28;20417;-77
2023/10/06 18:40:38;;;;;;;23.33;3.47;;;;;;;16.61;100.00;102132.09;10597053;27;20029;-75
2023/10/06 18:45:39;;;;;;;16.25;5.82;;;;;;;16.59;100.00;102128.72;10596238;27;20059;-73
2023/10/06 18:50:39;;;;;;;19.73;4.32;;;;;;;16.53;100.00;102124.94;10595675;27;20035;-76
2023/10/06 18:55:40;;;;;;;16.02;5.53;;;;;;;16.55;100.00;102133.75;10598706;27;20054;-77
2023/10/06 19:00:47;;;;;;;10.15;4.18;;;;;;;16.52;100.00;102135.00;10604551;27;20039;-74
2023/10/06 19:05:47;;;;;;;15.45;4.03;;;;;;;16.44;100.00;102143.41;10597959;28;20110;-76
2023/10/06 19:10:48;;;;;;;15.93;4.72;;;;;;;16.49;100.00;102137.31;10594874;27;20035;-75
2023/10/06 19:15:52;;;;;;;6.50;4.93;;;;;;;16.47;100.00;102131.22;10594409;28;20093;-76
2023/10/06 19:20:59;;;;;;;17.38;6.47;;;;;;;16.44;100.00;102131.66;10594109;27;20032;-74
2023/10/06 19:26:08;;;;;;;32.20;5.32;;;;;;;16.48;100.00;102132.91;10592740;28;20142;-76
2023/10/06 19:31:09;;;;;;;8.93;4.32;;;;;;;16.38;100.00;102119.63;10576228;28;20072;-76
2023/10/06 19:36:12;;;;;;;9.60;4.32;;;;;;;16.50;100.00;102139.03;10587329;28;20035;-76
2023/10/06 19:41:14;;;;;;;8.52;4.68;;;;;;;16.46;100.00;102138.59;10586963;28;20024;-75
2023/10/06 19:46:14;;;;;;;10.57;4.15;;;;;;;16.41;100.00;102126.59;10585462;28;20019;-73
2023/10/06 19:51:17;;;;;;;12.63;4.30;;;;;;;16.37;100.00;102134.38;10589117;28;20028;-75
2023/10/06 19:56:18;;;;;;;11.30;4.55;;;;;;;16.34;100.00;102118.38;10572912;28;20031;-76
2023/10/06 20:01:22;;;;;;;16.65;5.13;;;;;;;16.36;100.00;102129.09;10597228;28;20438;-75
2023/10/06 20:06:22;;;;;;;12.93;4.82;;;;;;;16.34;100.00;102126.56;10591043;28;20035;-77
2023/10/06 20:11:23;;;;;;;23.92;5.75;;;;;;;16.34;100.00;102123.84;10588032;28;20110;-75
2023/10/06 20:16:23;;;;;;;7.35;4.30;;;;;;;16.36;100.00;102132.66;10584302;28;20474;-73
2023/10/06 20:21:24;;;;;;;14.38;4.90;;;;;;;16.35;100.00;102128.25;10583295;28;20059;-76
2023/10/06 20:26:24;;;;;;;9.82;4.43;;;;;;;16.38;100.00;102138.78;10583410;28;20200;-74
2023/10/06 20:31:24;;;;;;;13.35;5.53;;;;;;;16.39;100.00;102125.94;10584807;27;20032;-75
2023/10/06 20:36:25;;;;;;;22.52;6.13;;;;;;;16.34;100.00;102115.63;10583300;28;20370;-77
2023/10/06 20:41:27;;;;;;;14.90;5.75;;;;;;;16.30;100.00;102125.28;10584350;28;20088;-77
2023/10/06 20:46:28;;;;;;;8.45;5.07;;;;;;;16.29;100.00;102123.59;10583764;28;20040;-76
2023/10/06 20:51:30;;;;;;;13.80;4.63;;;;;;;16.27;100.00;102122.94;10583116;28;20042;-74
2023/10/06 20:56:30;;;;;;;23.67;6.80;;;;;;;16.25;100.00;102127.81;10584990;28;20074;-76
2023/10/06 21:01:31;;;;;;;10.85;3.65;;;;;;;16.27;100.00;102137.50;10582619;28;20062;-73
2023/10/06 21:06:35;;;;;;;15.60;5.63;;;;;;;16.22;100.00;102136.41;10583087;28;20027;-73
2023/10/06 21:11:37;;;;;;;11.85;5.05;;;;;;;16.17;100.00;102125.25;10583340;28;20467;-74
2023/10/06 21:16:38;;;;;;;22.50;6.00;;;;;;;16.20;100.00;102124.81;10583394;28;20038;-76
2023/10/06 21:21:38;;;;;;;12.02;4.20;;;;;;;16.22;100.00;102136.41;10581379;28;20076;-76
2023/10/06 21:26:38;;;;;;;4.70;3.58;;;;;;;16.22;100.00;102141.88;10583911;28;20051;-75
2023/10/06 21:31:39;;;;;;;9.35;4.63;;;;;;;16.18;100.00;102122.31;10582812;28;20082;-75
2023/10/06 21:36:39;;;;;;;7.85;4.15;;;;;;;16.26;100.00;102124.00;10585949;28;20032;-74
2023/10/06 21:41:40;;;;;;;12.45;4.68;;;;;;;16.19;100.00;102114.94;10582700;28;20064;-77
2023/10/06 21:46:41;;;;;;;20.15;5.88;;;;;;;16.26;100.00;102111.19;10583598;28;20046;-76
2023/10/06 21:51:41;;;;;;;9.52;4.95;;;;;;;16.28;100.00;102122.75;10584027;28;20088;-75
2023/10/06 21:56:42;;;;;;;16.65;5.78;;;;;;;16.22;100.00;102117.28;10582755;28;20043;-75
2023/10/06 22:01:42;;;;;;;9.70;5.10;;;;;;;16.33;100.00;102140.44;10582579;28;20024;-78
2023/10/06 22:06:44;;;;;;;14.10;5.28;;;;;;;16.20;100.00;102136.59;10566282;28;20031;-75
2023/10/06 22:11:47;;;;;;;13.70;5.35;;;;;;;16.27;100.00;102134.75;10582934;28;20031;-77
2023/10/06 22:16:48;;;;;;;19.02;4.65;;;;;;;16.29;100.00;102115.41;10586229;28;20156;-78
2023/10/06 22:21:50;;;;;;;14.30;5.20;;;;;;;16.35;100.00;102144.66;10584015;28;20083;-77
2023/10/06 22:26:50;;;;;;;14.35;5.13;;;;;;;16.35;100.00;102133.72;10584894;28;20063;-78
2023/10/06 22:31:51;;;;;;;9.02;4.88;;;;;;;16.34;100.00;102132.03;10582870;28;20039;-77
2023/10/06 22:36:52;;;;;;;13.55;5.30;;;;;;;16.38;100.00;102133.31;10583443;28;20431;-76
2023/10/06 22:41:53;;;;;;;12.38;5.57;;;;;;;16.37;100.00;102109.75;10585282;28;20372;-77
2023/10/06 22:46:53;;;;;;;18.42;5.80;;;;;;;16.48;100.00;102130.16;10583274;28;20065;-77
2023/10/06 22:51:54;;;;;;;14.85;6.10;;;;;;;16.46;100.00;102118.59;10586121;28;20385;-74
2023/10/06 22:56:54;;;;;;;16.95;5.82;;;;;;;16.54;100.00;102107.47;10583624;28;20115;-75
2023/10/06 23:01:55;;;;;;;7.80;5.20;;;;;;;16.77;100.00;102084.38;10597911;28;20027;-75